Time;durP1;ratioP1;P1;durP2;ratioP2;P2;SDS_P1;SDS_P2;PMS_P1;PMS_P2;Temp;Humidity;BMP_temperature;BMP_pressure;BME280_temperature;BME280_humidity;BME280_pressure;Samples;Min_cycle;Max_cycle;Signal;HPM_P1;HPM_P2
2021/05/12 00:01:58;;;;;;;6.55;2.52;;;;;;;17.28;39.29;99815.02;1625171;86;35034;-73
2021/05/12 00:04:24;;;;;;;7.72;2.47;;;;;;;17.25;39.29;99820.23;1625743;86;25669;-73
2021/05/12 00:06:50;;;;;;;7.58;2.65;;;;;;;17.21;39.28;99820.37;1653918;85;26283;-73
2021/05/12 00:09:16;;;;;;;8.40;3.10;;;;;;;17.18;39.32;99812.89;1669826;84;33146;-73
2021/05/12 00:11:42;;;;;;;9.33;2.60;;;;;;;17.15;39.33;99815.18;1643157;86;25722;-73
2021/05/12 00:14:08;;;;;;;6.30;2.55;;;;;;;17.11;39.31;99811.38;1671870;84;34978;-73
2021/05/12 00:16:34;;;;;;;6.17;2.60;;;;;;;17.08;39.38;99812.63;1626734;86;25753;-73
2021/05/12 00:19:00;;;;;;;8.53;3.05;;;;;;;17.03;39.42;99814.60;1672114;84;25946;-73
2021/05/12 00:21:33;;;;;;;9.68;3.15;;;;;;;17.00;39.41;99806.33;1625266;86;33181;-73
2021/05/12 00:24:02;;;;;;;6.45;2.67;;;;;;;16.95;39.49;99809.62;1625369;86;25290;-73
2021/05/12 00:26:37;;;;;;;8.30;3.15;;;;;;;16.91;39.48;99808.95;1655075;84;25704;-73
2021/05/12 00:29:05;;;;;;;9.98;2.85;;;;;;;16.88;39.49;99800.16;1655324;85;25981;-73
2021/05/12 00:31:31;;;;;;;6.08;2.70;;;;;;;16.81;39.46;99812.91;1654583;85;26643;-73
2021/05/12 00:33:57;;;;;;;6.08;2.90;;;;;;;16.79;39.53;99803.08;1672500;84;33683;-73
2021/05/12 00:36:24;;;;;;;6.97;2.95;;;;;;;16.74;39.52;99798.94;1653340;85;31234;-73
2021/05/12 00:38:50;;;;;;;10.08;2.90;;;;;;;16.71;39.53;99806.50;1623933;86;25733;-73
2021/05/12 00:41:16;;;;;;;7.12;3.17;;;;;;;16.63;39.56;99799.67;1654020;85;32651;-73
2021/05/12 00:43:42;;;;;;;6.85;2.47;;;;;;;16.61;39.59;99801.70;1669880;84;25826;-73
2021/05/12 00:46:08;;;;;;;8.10;3.02;;;;;;;16.56;39.61;99802.38;1653364;85;25827;-73
2021/05/12 00:48:34;;;;;;;6.78;3.10;;;;;;;16.53;39.64;99798.03;1671926;84;25359;-73
2021/05/12 00:51:01;;;;;;;9.10;3.12;;;;;;;16.50;39.68;99804.55;1625545;86;35406;-73
2021/05/12 00:53:26;;;;;;;9.15;2.80;;;;;;;16.49;39.67;99806.11;1672604;84;25287;-73
2021/05/12 00:55:52;;;;;;;7.28;3.87;;;;;;;16.43;39.68;99799.34;1653725;85;25837;-73
2021/05/12 00:58:18;;;;;;;6.28;2.80;;;;;;;16.38;39.68;99804.98;1671746;84;33218;-73
2021/05/12 01:00:44;;;;;;;10.65;3.08;;;;;;;16.34;39.68;99799.34;1626422;86;31330;-73
2021/05/12 01:03:10;;;;;;;6.45;2.30;;;;;;;16.31;39.68;99796.31;1653378;85;25986;-72
2021/05/12 01:05:44;;;;;;;8.05;2.50;;;;;;;16.30;39.76;99802.10;1624643;86;32671;-72
2021/05/12 01:08:10;;;;;;;4.92;2.65;;;;;;;16.28;39.74;99796.75;1654286;85;25662;-73
2021/05/12 01:10:36;;;;;;;8.00;2.60;;;;;;;16.25;39.75;99794.55;1672000;84;33245;-73
2021/05/12 01:13:02;;;;;;;11.63;2.92;;;;;;;16.23;39.73;99790.79;1626734;86;31187;-73
2021/05/12 01:15:29;;;;;;;6.22;2.72;;;;;;;16.19;39.77;99785.15;1671010;84;25739;-73
2021/05/12 01:18:14;;;;;;;8.28;3.45;;;;;;;16.16;39.78;99789.54;1654556;85;25867;-73
2021/05/12 01:20:56;;;;;;;10.28;3.17;;;;;;;16.14;39.83;99784.19;1654239;85;25817;-74
2021/05/12 01:23:26;;;;;;;6.50;2.80;;;;;;;16.13;39.85;99784.70;1663295;84;25753;-74
2021/05/12 01:25:55;;;;;;;13.03;2.80;;;;;;;16.10;39.76;99777.74;1653537;85;25716;-73
2021/05/12 01:28:23;;;;;;;5.78;2.90;;;;;;;16.05;39.83;99786.29;1654396;85;25796;-73
2021/05/12 01:31:10;;;;;;;8.30;3.10;;;;;;;16.03;39.81;99778.30;1670173;84;25746;-73
2021/05/12 01:33:38;;;;;;;8.53;2.55;;;;;;;16.00;39.87;99780.84;1653140;85;25851;-73
2021/05/12 01:36:06;;;;;;;10.10;3.25;;;;;;;16.00;39.89;99768.98;1671876;84;25784;-73
2021/05/12 01:38:34;;;;;;;9.65;3.08;;;;;;;15.98;39.83;99771.83;1626340;86;25783;-73
2021/05/12 01:41:02;;;;;;;10.20;3.00;;;;;;;15.96;39.89;99770.45;1626612;86;25738;-73
2021/05/12 01:43:30;;;;;;;11.18;3.37;;;;;;;15.94;39.87;99768.02;1626089;86;25984;-74
2021/05/12 01:45:56;;;;;;;7.97;3.05;;;;;;;15.91;39.93;99768.45;1653926;85;25946;-74
2021/05/12 01:48:22;;;;;;;8.13;3.00;;;;;;;15.89;40.00;99769.17;1629374;85;25414;-74
2021/05/12 01:50:47;;;;;;;9.00;3.12;;;;;;;15.87;39.97;99766.45;1653876;85;31354;-74
2021/05/12 01:53:14;;;;;;;7.33;2.52;;;;;;;15.85;40.06;99765.84;1669393;84;34857;-73
2021/05/12 01:55:41;;;;;;;10.08;2.83;;;;;;;15.81;40.02;99760.72;1625231;86;25318;-73
2021/05/12 01:58:07;;;;;;;14.47;3.25;;;;;;;15.78;40.09;99758.00;1625971;86;25660;-73
2021/05/12 02:00:43;;;;;;;8.53;2.98;;;;;;;15.76;40.09;99762.16;1624717;86;25855;-73
2021/05/12 02:03:09;;;;;;;6.62;2.52;;;;;;;15.71;40.07;99757.23;1652440;85;25872;-73
2021/05/12 02:05:38;;;;;;;7.25;3.17;;;;;;;15.65;40.16;99756.74;1672239;84;25849;-74
2021/05/12 02:08:08;;;;;;;10.18;2.87;;;;;;;15.62;40.20;99755.34;1626166;86;25756;-73
2021/05/12 02:10:35;;;;;;;7.45;2.80;;;;;;;15.60;40.24;99749.98;1626077;86;27163;-73
2021/05/12 02:13:02;;;;;;;10.28;2.87;;;;;;;15.57;40.33;99757.80;1672046;84;25792;-73
2021/05/12 02:15:27;;;;;;;8.18;3.85;;;;;;;15.56;40.39;99752.25;1656723;85;25829;-73
2021/05/12 02:17:53;;;;;;;8.90;3.25;;;;;;;15.53;40.41;99752.67;1670856;84;35599;-73
2021/05/12 02:20:24;;;;;;;7.30;3.92;;;;;;;15.49;40.46;99756.22;1653821;85;33102;-73
2021/05/12 02:22:50;;;;;;;11.50;3.45;;;;;;;15.48;40.53;99749.86;1623252;86;25784;-73
2021/05/12 02:25:16;;;;;;;9.00;3.27;;;;;;;15.44;40.56;99753.92;1627121;86;33308;-73
2021/05/12 02:27:42;;;;;;;9.48;3.22;;;;;;;15.42;40.64;99753.35;1672147;84;31227;-73
2021/05/12 02:30:11;;;;;;;7.00;3.08;;;;;;;15.40;40.72;99754.06;1653757;84;34984;-73
2021/05/12 02:32:37;;;;;;;6.58;2.62;;;;;;;15.38;40.77;99752.95;1669889;84;25341;-73
2021/05/12 02:35:07;;;;;;;7.17;2.87;;;;;;;15.33;40.83;99755.41;1626131;86;25782;-73
2021/05/12 02:37:33;;;;;;;8.93;2.90;;;;;;;15.31;40.90;99749.05;1625680;86;26578;-73
2021/05/12 02:40:00;;;;;;;5.60;3.15;;;;;;;15.29;40.94;99755.55;1672882;84;25335;-73
2021/05/12 02:42:26;;;;;;;5.15;2.80;;;;;;;15.21;40.96;99753.95;1654048;85;25887;-74
2021/05/12 02:44:52;;;;;;;5.75;2.40;;;;;;;15.19;41.00;99753.34;1653806;85;25347;-74
2021/05/12 02:47:18;;;;;;;7.05;3.17;;;;;;;15.17;41.17;99752.77;1654976;85;26154;-71
2021/05/12 02:49:43;;;;;;;6.45;2.75;;;;;;;15.17;41.14;99749.31;1653817;85;25385;-71
2021/05/12 02:52:09;;;;;;;9.38;3.50;;;;;;;15.15;41.16;99751.36;1670753;84;31306;-71
2021/05/12 02:54:35;;;;;;;10.53;3.27;;;;;;;15.13;41.28;99750.77;1625931;86;34852;-71
2021/05/12 02:57:03;;;;;;;6.10;3.20;;;;;;;15.10;41.33;99756.73;1625401;86;25326;-71
2021/05/12 02:59:29;;;;;;;8.20;3.02;;;;;;;15.06;41.41;99750.29;1626544;86;25825;-72
2021/05/12 03:01:55;;;;;;;7.72;2.92;;;;;;;15.05;41.46;99757.06;1625919;86;25823;-72
2021/05/12 03:04:22;;;;;;;9.53;3.02;;;;;;;15.01;41.54;99754.05;1625915;86;25766;-71
2021/05/12 03:06:48;;;;;;;6.97;3.20;;;;;;;15.00;41.61;99750.30;1624705;86;25441;-70
2021/05/12 03:09:15;;;;;;;8.98;3.15;;;;;;;14.94;41.66;99745.37;1627523;86;25829;-71
2021/05/12 03:11:41;;;;;;;11.45;3.00;;;;;;;14.93;41.75;99749.54;1626993;86;25841;-73
2021/05/12 03:14:09;;;;;;;5.97;2.67;;;;;;;14.92;41.96;99747.91;1623662;86;25341;-73
2021/05/12 03:16:36;;;;;;;11.55;3.15;;;;;;;14.91;41.91;99750.25;1653455;85;25842;-73
2021/05/12 03:19:04;;;;;;;11.43;2.85;;;;;;;14.90;41.96;99747.33;1672302;84;25637;-74
2021/05/12 03:21:32;;;;;;;10.82;2.85;;;;;;;14.88;42.01;99752.27;1654933;84;26590;-73
2021/05/12 03:23:59;;;;;;;7.47;3.62;;;;;;;14.89;42.06;99743.86;1625936;85;25908;-73
2021/05/12 03:26:25;;;;;;;9.18;3.27;;;;;;;14.86;42.18;99749.03;1653529;85;25817;-73
2021/05/12 03:28:50;;;;;;;12.65;2.92;;;;;;;14.85;42.22;99747.94;1626358;86;31406;-73
2021/05/12 03:31:16;;;;;;;8.20;2.70;;;;;;;14.87;42.41;99748.55;1653898;85;34899;-73
2021/05/12 03:33:43;;;;;;;6.78;2.47;;;;;;;14.86;42.35;99748.23;1645218;85;33102;-74
2021/05/12 03:36:11;;;;;;;5.33;2.95;;;;;;;14.85;42.48;99746.11;1625734;86;25892;-73
2021/05/12 03:38:37;;;;;;;5.05;3.00;;;;;;;14.87;42.44;99746.72;1671117;84;25888;-73
2021/05/12 03:41:04;;;;;;;6.78;3.15;;;;;;;14.87;42.43;99749.34;1654455;85;25399;-72
2021/05/12 03:43:30;;;;;;;8.78;3.05;;;;;;;14.90;42.51;99747.33;1670357;84;25793;-72
2021/05/12 03:45:56;;;;;;;7.55;2.90;;;;;;;14.91;42.56;99744.98;1625951;86;25732;-72
2021/05/12 03:48:22;;;;;;;10.95;4.35;;;;;;;14.94;42.64;99751.14;1672431;84;25657;-72
2021/05/12 03:50:48;;;;;;;10.70;3.35;;;;;;;14.96;42.69;99747.80;1653645;85;25530;-73
2021/05/12 03:53:14;;;;;;;5.72;2.80;;;;;;;14.98;42.75;99751.04;1670735;84;31215;-73
2021/05/12 03:55:41;;;;;;;6.78;2.70;;;;;;;15.00;42.71;99752.42;1653473;85;35092;-74
2021/05/12 03:58:08;;;;;;;5.78;2.92;;;;;;;15.04;42.72;99752.83;1643084;86;25820;-73
2021/05/12 04:00:34;;;;;;;5.40;2.80;;;;;;;15.07;42.73;99743.19;1673300;84;25933;-73
2021/05/12 04:03:00;;;;;;;9.58;3.20;;;;;;;15.10;42.84;99743.57;1652728;85;25590;-73
2021/05/12 04:05:26;;;;;;;14.07;3.37;;;;;;;15.14;42.84;99751.88;1654638;85;31298;-72
2021/05/12 04:07:52;;;;;;;9.55;3.00;;;;;;;15.18;42.88;99747.00;1652317;85;34939;-72
2021/05/12 04:10:20;;;;;;;8.38;2.92;;;;;;;15.20;42.93;99754.98;1653600;85;32546;-72
2021/05/12 04:12:47;;;;;;;9.33;2.87;;;;;;;15.24;43.00;99752.73;1630260;85;25664;-72
2021/05/12 04:15:14;;;;;;;9.53;3.30;;;;;;;15.29;43.04;99756.86;1670516;84;25871;-72
2021/05/12 04:17:39;;;;;;;7.25;3.00;;;;;;;15.32;43.06;99751.97;1625286;86;25781;-72
2021/05/12 04:20:10;;;;;;;6.20;2.62;;;;;;;15.36;43.05;99743.64;1625423;86;34924;-72
2021/05/12 04:22:40;;;;;;;5.05;2.80;;;;;;;15.40;43.00;99747.48;1672438;84;25483;-72
2021/05/12 04:25:12;;;;;;;9.73;3.05;;;;;;;15.44;43.04;99745.54;1626618;86;26037;-73
2021/05/12 04:27:38;;;;;;;8.20;3.55;;;;;;;15.49;43.09;99741.73;1625650;86;25745;-72
2021/05/12 04:30:09;;;;;;;9.38;3.00;;;;;;;15.54;43.00;99752.45;1626321;86;31309;-72
2021/05/12 04:32:35;;;;;;;13.40;3.33;;;;;;;15.58;43.07;99744.11;1623737;86;25909;-72
2021/05/12 04:35:01;;;;;;;7.72;2.45;;;;;;;15.63;43.10;99750.39;1626832;86;32587;-73
2021/05/12 04:37:27;;;;;;;9.08;3.08;;;;;;;15.69;43.15;99749.56;1626198;86;25889;-73
2021/05/12 04:39:52;;;;;;;8.45;3.00;;;;;;;15.73;43.08;99742.02;1641114;86;33738;-73
2021/05/12 04:42:18;;;;;;;8.45;2.95;;;;;;;15.81;43.14;99747.55;1672024;84;31390;-72
2021/05/12 04:44:44;;;;;;;5.40;2.47;;;;;;;15.86;42.97;99743.77;1626846;86;34885;-72
2021/05/12 04:47:12;;;;;;;15.70;3.17;;;;;;;15.90;42.93;99745.73;1627221;86;32592;-72
2021/05/12 04:49:38;;;;;;;6.45;2.70;;;;;;;15.96;42.98;99736.19;1670361;84;25746;-73
2021/05/12 04:52:04;;;;;;;8.10;2.58;;;;;;;16.00;43.01;99740.51;1653564;85;33253;-73
2021/05/12 04:54:30;;;;;;;6.85;2.70;;;;;;;16.05;43.15;99742.79;1622658;86;25942;-73
2021/05/12 04:56:59;;;;;;;11.73;3.65;;;;;;;16.12;43.12;99747.51;1652539;85;34889;-73
2021/05/12 04:59:25;;;;;;;7.47;2.55;;;;;;;16.18;43.22;99746.63;1641284;86;25365;-73
2021/05/12 05:01:51;;;;;;;10.43;2.77;;;;;;;16.24;43.09;99746.80;1671757;84;25827;-75
2021/05/12 05:04:18;;;;;;;14.75;3.27;;;;;;;16.30;43.23;99747.23;1623726;85;26036;-73
2021/05/12 05:06:44;;;;;;;8.35;3.02;;;;;;;16.41;43.30;99746.00;1653818;85;25424;-73
2021/05/12 05:09:10;;;;;;;7.33;2.55;;;;;;;16.47;43.24;99740.36;1670125;84;25737;-73
2021/05/12 05:11:36;;;;;;;10.60;2.87;;;;;;;16.54;43.15;99739.78;1642867;85;25853;-73
2021/05/12 05:14:03;;;;;;;14.40;3.02;;;;;;;16.62;43.06;99738.17;1653180;85;25753;-73
2021/05/12 05:16:29;;;;;;;11.80;2.80;;;;;;;16.69;42.88;99743.37;1653937;84;25752;-73
2021/05/12 05:18:55;;;;;;;11.68;2.85;;;;;;;16.76;42.90;99736.71;1670610;84;25612;-73
2021/05/12 05:21:21;;;;;;;12.18;3.15;;;;;;;16.83;42.98;99737.45;1626063;86;25785;-73
2021/05/12 05:23:47;;;;;;;9.35;2.45;;;;;;;16.91;42.99;99741.63;1673182;84;25378;-73
2021/05/12 05:26:13;;;;;;;14.10;2.87;;;;;;;16.98;42.88;99742.37;1654138;85;25642;-73
2021/05/12 05:28:39;;;;;;;11.50;2.80;;;;;;;17.05;42.83;99739.11;1670427;84;33206;-73
2021/05/12 05:31:04;;;;;;;20.32;4.30;;;;;;;17.14;42.75;99743.59;1627106;86;31928;-73
2021/05/12 05:33:49;;;;;;;11.30;2.85;;;;;;;17.20;42.57;99744.02;1627171;86;25492;-73
2021/05/12 05:36:33;;;;;;;8.90;2.62;;;;;;;17.28;42.57;99743.70;1624897;86;25772;-74
2021/05/12 05:39:18;;;;;;;4.67;1.95;;;;;;;17.39;42.71;99745.58;1625853;86;27637;-74
2021/05/12 05:42:09;;;;;;;9.48;2.92;;;;;;;17.49;42.36;99738.44;1655098;85;25717;-73
2021/05/12 05:44:42;;;;;;;11.85;2.67;;;;;;;17.57;42.30;99741.25;1603515;85;26023;-73
2021/05/12 05:47:27;;;;;;;13.85;2.72;;;;;;;17.64;42.18;99741.97;1654897;85;25936;-74
2021/05/12 05:50:13;;;;;;;10.75;2.60;;;;;;;17.72;41.90;99736.36;1671072;84;25339;-72
2021/05/12 05:52:58;;;;;;;7.20;2.30;;;;;;;17.82;42.08;99741.13;1654345;85;27055;-74
2021/05/12 05:55:42;;;;;;;12.30;2.90;;;;;;;17.91;42.03;99736.58;1669841;84;26861;-73
2021/05/12 05:58:27;;;;;;;9.60;2.70;;;;;;;18.02;42.00;99735.50;1654949;85;25792;-73
2021/05/12 06:01:11;;;;;;;9.20;2.80;;;;;;;18.11;41.84;99738.09;1672413;84;25356;-73
2021/05/12 06:03:37;;;;;;;4.45;2.05;;;;;;;18.21;41.51;99734.87;1627343;86;32689;-73
2021/05/12 06:06:21;;;;;;;11.43;3.10;;;;;;;18.27;41.03;99737.39;1627327;86;25708;-73
2021/05/12 06:09:05;;;;;;;7.85;2.22;;;;;;;18.37;41.05;99737.62;1628177;86;25797;-73
2021/05/12 06:11:51;;;;;;;15.55;2.67;;;;;;;18.45;40.97;99735.15;1623853;86;26030;-73
2021/05/12 06:14:35;;;;;;;15.35;3.87;;;;;;;18.53;41.19;99737.44;1625638;86;25781;-72
2021/05/12 06:17:20;;;;;;;11.35;2.83;;;;;;;18.63;41.66;99732.86;1626227;86;25752;-74
2021/05/12 06:20:07;;;;;;;14.35;2.60;;;;;;;18.75;40.95;99737.66;1669674;84;25744;-73
2021/05/12 06:23:02;;;;;;;11.90;2.58;;;;;;;18.80;40.52;99727.70;1654135;84;25814;-73
2021/05/12 06:25:47;;;;;;;8.63;2.50;;;;;;;18.88;40.59;99728.66;1670515;84;25900;-73
2021/05/12 06:28:31;;;;;;;15.55;3.10;;;;;;;18.95;40.11;99727.18;1653513;85;25350;-73
2021/05/12 06:31:16;;;;;;;13.38;2.70;;;;;;;19.00;40.17;99729.41;1669643;84;25792;-72
2021/05/12 06:34:01;;;;;;;13.95;2.50;;;;;;;19.06;39.78;99726.33;1626074;86;27603;-73
2021/05/12 06:36:46;;;;;;;6.72;2.37;;;;;;;19.13;39.80;99714.28;1672666;84;25800;-72
2021/05/12 06:39:30;;;;;;;8.58;2.55;;;;;;;19.20;39.42;99718.37;1625249;85;25971;-74
2021/05/12 06:41:56;;;;;;;10.58;2.65;;;;;;;19.25;38.93;99721.64;1651529;85;35031;-73
2021/05/12 06:44:23;;;;;;;12.63;2.65;;;;;;;19.32;39.52;99720.19;1625331;86;26439;-73
2021/05/12 06:46:51;;;;;;;7.62;2.92;;;;;;;19.42;39.31;99728.30;1668398;84;25738;-72
2021/05/12 06:49:18;;;;;;;10.43;2.60;;;;;;;19.50;39.05;99725.25;1652712;85;26007;-73
2021/05/12 06:51:45;;;;;;;11.95;3.77;;;;;;;19.58;38.69;99718.77;1642120;84;25806;-73
2021/05/12 06:54:11;;;;;;;10.10;2.33;;;;;;;19.67;38.89;99723.97;1670107;84;25832;-73
2021/05/12 06:56:38;;;;;;;10.30;2.33;;;;;;;19.74;38.61;99720.13;1653931;85;33216;-72
2021/05/12 06:59:04;;;;;;;11.08;2.60;;;;;;;19.83;38.79;99724.50;1672486;84;26651;-73
2021/05/12 07:01:30;;;;;;;14.20;3.15;;;;;;;19.93;38.58;99713.25;1653101;85;25999;-72
2021/05/12 07:03:56;;;;;;;16.50;3.67;;;;;;;20.04;38.51;99714.20;1653627;85;25849;-74
2021/05/12 07:06:22;;;;;;;14.03;2.77;;;;;;;20.14;38.83;99715.16;1670462;84;26555;-72
2021/05/12 07:08:50;;;;;;;13.10;2.20;;;;;;;20.23;38.71;99714.21;1652933;85;25431;-74
2021/05/12 07:11:17;;;;;;;10.48;2.33;;;;;;;20.34;38.10;99711.17;1671846;84;25823;-74
2021/05/12 07:13:43;;;;;;;13.75;2.90;;;;;;;20.40;37.96;99714.97;1672410;84;25884;-74
2021/05/12 07:16:08;;;;;;;7.25;2.58;;;;;;;20.51;38.40;99711.13;1625929;86;31345;-74
2021/05/12 07:18:34;;;;;;;13.60;2.83;;;;;;;20.61;37.73;99701.46;1672652;84;26425;-74
2021/05/12 07:21:00;;;;;;;9.38;2.10;;;;;;;20.70;37.56;99701.03;1672521;84;25431;-74
2021/05/12 07:23:28;;;;;;;13.28;2.95;;;;;;;20.76;37.50;99704.02;1653808;85;26528;-73
2021/05/12 07:25:56;;;;;;;9.85;2.02;;;;;;;20.83;37.57;99692.68;1654620;85;25784;-72
2021/05/12 07:28:23;;;;;;;9.63;2.50;;;;;;;20.92;38.15;99697.81;1670308;84;25781;-72
2021/05/12 07:30:49;;;;;;;15.03;2.10;;;;;;;21.08;37.43;99694.00;1625900;86;25780;-73
2021/05/12 07:33:15;;;;;;;8.85;2.33;;;;;;;21.15;37.24;99692.75;1670574;84;25320;-75
2021/05/12 07:35:41;;;;;;;20.62;2.87;;;;;;;21.23;37.14;99692.30;1629795;85;25894;-74
2021/05/12 07:38:07;;;;;;;13.40;2.12;;;;;;;21.32;36.76;99689.98;1653515;85;25782;-74
2021/05/12 07:40:34;;;;;;;14.15;2.12;;;;;;;21.38;36.39;99685.00;1671404;84;31834;-73
2021/05/12 07:43:05;;;;;;;10.13;2.08;;;;;;;21.47;36.70;99691.98;1653513;85;25944;-73
2021/05/12 07:45:31;;;;;;;18.40;2.65;;;;;;;21.54;36.68;99689.93;1654723;84;25619;-73
2021/05/12 07:47:56;;;;;;;10.00;2.02;;;;;;;21.66;37.35;99693.73;1653496;85;25852;-73
2021/05/12 07:50:23;;;;;;;14.70;2.35;;;;;;;21.76;37.22;99692.48;1641683;85;33625;-73
2021/05/12 07:52:49;;;;;;;11.33;2.27;;;;;;;21.85;36.60;99697.63;1629843;85;25807;-73
2021/05/12 07:55:15;;;;;;;8.33;2.08;;;;;;;21.93;36.77;99686.50;1652344;84;25873;-75
2021/05/12 07:57:41;;;;;;;5.37;2.05;;;;;;;22.07;36.93;99688.69;1651156;85;25825;-74
2021/05/12 08:00:09;;;;;;;9.13;2.10;;;;;;;22.17;35.74;99683.43;1669376;84;25765;-73
2021/05/12 08:02:41;;;;;;;8.50;2.10;;;;;;;22.22;36.14;99682.16;1625051;86;25580;-73
2021/05/12 08:05:09;;;;;;;16.20;2.15;;;;;;;22.30;36.82;99685.66;1671762;84;25829;-74
2021/05/12 08:07:36;;;;;;;13.08;2.30;;;;;;;22.42;36.91;99683.31;1625955;86;25689;-74
2021/05/12 08:10:03;;;;;;;13.55;2.22;;;;;;;22.53;36.76;99678.30;1671086;84;25377;-73
2021/05/12 08:12:29;;;;;;;5.95;1.87;;;;;;;22.59;36.60;99678.61;1652254;85;25709;-75
2021/05/12 08:14:54;;;;;;;10.20;2.72;;;;;;;22.65;36.31;99680.76;1651411;84;30508;-74
2021/05/12 08:17:20;;;;;;;9.83;1.92;;;;;;;22.68;36.58;99676.23;1651339;85;31455;-74
2021/05/12 08:19:46;;;;;;;12.98;2.87;;;;;;;22.79;36.73;99676.53;1668882;84;25765;-75
2021/05/12 08:22:12;;;;;;;21.02;2.15;;;;;;;22.88;36.54;99685.60;1625666;86;25832;-75
2021/05/12 08:24:38;;;;;;;12.85;1.92;;;;;;;22.93;36.30;99675.50;1669575;84;25890;-76
2021/05/12 08:27:05;;;;;;;9.73;2.02;;;;;;;22.99;36.24;99679.26;1626048;86;26714;-74
2021/05/12 08:29:33;;;;;;;14.07;1.90;;;;;;;23.06;36.43;99674.23;1669626;84;25330;-77
2021/05/12 08:31:59;;;;;;;4.50;1.90;;;;;;;23.13;36.58;99672.08;1669002;84;25805;-75
2021/05/12 08:34:28;;;;;;;11.97;1.72;;;;;;;23.21;36.77;99668.89;1669726;84;25824;-75
2021/05/12 08:36:55;;;;;;;5.80;2.15;;;;;;;23.29;36.15;99676.36;1651916;85;25889;-75
2021/05/12 08:39:22;;;;;;;10.78;2.40;;;;;;;23.36;35.98;99671.58;1695442;82;25789;-75
2021/05/12 08:41:49;;;;;;;8.05;2.02;;;;;;;23.44;35.94;99667.05;1626037;86;25876;-76
2021/05/12 08:44:15;;;;;;;12.98;2.40;;;;;;;23.51;35.56;99664.09;1649257;85;25820;-77
2021/05/12 08:46:43;;;;;;;6.83;1.85;;;;;;;23.55;36.06;99661.17;1625814;85;25767;-73
2021/05/12 08:49:10;;;;;;;6.05;1.80;;;;;;;23.65;35.39;99655.83;1626997;86;25755;-75
2021/05/12 08:51:39;;;;;;;11.18;2.15;;;;;;;23.71;35.64;99652.66;1625829;86;25824;-75
2021/05/12 08:54:07;;;;;;;9.15;1.87;;;;;;;23.80;35.36;99656.36;1654876;85;25380;-77
2021/05/12 08:56:33;;;;;;;8.38;1.92;;;;;;;23.91;35.62;99655.81;1653661;85;25794;-75
2021/05/12 08:59:01;;;;;;;6.03;1.62;;;;;;;24.03;35.17;99655.50;1629406;86;25353;-75
2021/05/12 09:01:27;;;;;;;12.45;2.45;;;;;;;24.10;35.02;99648.81;1653727;85;25879;-74
2021/05/12 09:03:53;;;;;;;9.05;1.77;;;;;;;24.16;34.33;99649.59;1655197;85;25781;-74
2021/05/12 09:06:19;;;;;;;12.63;2.30;;;;;;;24.18;34.34;99650.67;1654545;85;26440;-74
2021/05/12 09:08:47;;;;;;;13.28;1.90;;;;;;;24.21;34.16;99647.45;1652057;85;25865;-74
2021/05/12 09:11:12;;;;;;;13.55;2.10;;;;;;;24.24;33.98;99649.03;1609024;85;25809;-74
2021/05/12 09:13:39;;;;;;;9.83;2.00;;;;;;;24.28;34.10;99646.60;1652053;85;25788;-74
2021/05/12 09:16:27;;;;;;;13.90;1.85;;;;;;;24.35;34.38;99641.23;1653458;85;26034;-73
2021/05/12 09:19:10;;;;;;;14.68;1.60;;;;;;;24.44;33.82;99636.14;1652256;85;25712;-73
2021/05/12 09:21:58;;;;;;;5.20;1.45;;;;;;;24.48;33.97;99635.87;1652891;85;25954;-74
2021/05/12 09:24:32;;;;;;;12.18;1.95;;;;;;;24.51;33.17;99633.19;1653762;85;25368;-73
2021/05/12 09:27:08;;;;;;;13.32;2.27;;;;;;;24.56;33.54;99636.63;1653201;85;25756;-72
2021/05/12 09:29:40;;;;;;;7.33;1.60;;;;;;;24.67;33.07;99637.92;1652624;85;25753;-72
2021/05/12 09:32:13;;;;;;;8.88;2.05;;;;;;;24.71;33.06;99629.59;1652547;85;25860;-73
2021/05/12 09:35:02;;;;;;;7.97;1.37;;;;;;;24.78;33.29;99640.25;1653222;85;25881;-73
2021/05/12 09:37:43;;;;;;;14.03;1.90;;;;;;;24.87;32.84;99630.30;1653245;85;25581;-75
2021/05/12 09:40:13;;;;;;;5.60;1.70;;;;;;;24.96;32.24;99629.45;1653547;85;25853;-74
2021/05/12 09:42:41;;;;;;;14.38;1.65;;;;;;;24.99;32.82;99635.58;1652418;85;25810;-74
2021/05/12 09:45:22;;;;;;;10.30;1.67;;;;;;;25.07;32.55;99623.46;1653801;85;25800;-74
2021/05/12 09:47:58;;;;;;;15.25;2.30;;;;;;;25.07;31.67;99630.14;1630004;86;25371;-75
2021/05/12 09:50:40;;;;;;;5.20;1.40;;;;;;;25.13;32.26;99627.71;1652749;85;26626;-73
2021/05/12 09:53:15;;;;;;;11.63;1.40;;;;;;;25.23;32.38;99630.31;1653374;85;25885;-74
2021/05/12 09:55:48;;;;;;;8.65;1.10;;;;;;;25.32;31.96;99635.89;1652536;85;25793;-75
2021/05/12 09:58:21;;;;;;;16.40;1.98;;;;;;;25.36;31.72;99633.44;1654266;85;25792;-76
2021/05/12 10:00:49;;;;;;;10.63;1.80;;;;;;;25.41;30.99;99632.85;1654602;85;26522;-74
2021/05/12 10:03:17;;;;;;;10.28;1.45;;;;;;;25.46;32.30;99631.47;1654723;85;25820;-73
2021/05/12 10:05:58;;;;;;;14.60;1.67;;;;;;;25.54;32.18;99640.77;1641192;85;25662;-74
2021/05/12 10:08:35;;;;;;;8.13;1.62;;;;;;;25.60;31.04;99636.17;1626569;85;25680;-75
2021/05/12 10:11:06;;;;;;;16.35;1.85;;;;;;;25.61;31.00;99633.73;1654649;85;25635;-73
2021/05/12 10:13:35;;;;;;;13.03;1.37;;;;;;;25.60;31.31;99634.83;1623735;86;25792;-73
2021/05/12 10:16:05;;;;;;;36.88;3.40;;;;;;;25.62;30.57;99627.33;1654215;85;25806;-73
2021/05/12 10:18:31;;;;;;;18.55;1.75;;;;;;;25.60;30.68;99625.47;1672612;84;26588;-73
2021/05/12 10:20:58;;;;;;;9.40;2.27;;;;;;;25.58;30.92;99632.97;1625753;86;25756;-75
2021/05/12 10:23:26;;;;;;;16.12;2.37;;;;;;;25.58;30.86;99634.31;1672839;84;25367;-74
2021/05/12 10:25:52;;;;;;;6.95;1.72;;;;;;;25.60;31.89;99630.27;1643306;85;25895;-74
2021/05/12 10:28:18;;;;;;;10.35;1.90;;;;;;;25.71;31.83;99639.55;1671691;84;25858;-75
2021/05/12 10:30:50;;;;;;;11.97;1.85;;;;;;;25.80;31.63;99629.80;1629327;85;26378;-74
2021/05/12 10:33:16;;;;;;;20.27;2.05;;;;;;;25.85;31.80;99631.91;1669754;84;25736;-75
2021/05/12 10:35:43;;;;;;;8.28;1.30;;;;;;;25.87;31.71;99628.97;1653327;85;25334;-74
2021/05/12 10:38:31;;;;;;;16.73;2.00;;;;;;;25.94;31.99;99638.78;1673834;84;25740;-73
2021/05/12 10:40:57;;;;;;;25.60;2.58;;;;;;;25.98;30.97;99627.77;1625052;86;25820;-71
2021/05/12 10:45:57;;;;;;;12.65;1.85;;;;;;;26.05;30.98;99637.58;1655383;85;26051;-72
2021/05/12 10:48:33;;;;;;;13.32;1.95;;;;;;;26.08;30.85;99636.20;1670947;84;25750;-73
2021/05/12 10:51:07;;;;;;;7.20;1.75;;;;;;;26.10;30.85;99632.16;1651938;85;25454;-74
2021/05/12 10:53:45;;;;;;;27.75;2.58;;;;;;;26.20;30.96;99625.90;1643152;86;25762;-74
2021/05/12 10:56:13;;;;;;;11.93;1.90;;;;;;;26.26;30.78;99633.33;1672931;84;25745;-74
2021/05/12 10:58:55;;;;;;;6.40;2.22;;;;;;;26.31;30.95;99619.33;1626667;86;25712;-74
2021/05/12 11:01:23;;;;;;;12.90;2.47;;;;;;;26.35;30.74;99613.66;1626538;86;25745;-73
2021/05/12 11:03:54;;;;;;;12.50;1.92;;;;;;;26.38;30.87;99609.58;1625362;86;25758;-72
2021/05/12 11:06:35;;;;;;;14.43;2.60;;;;;;;26.46;30.44;99604.13;1671224;84;25352;-72
2021/05/12 11:09:17;;;;;;;10.53;1.90;;;;;;;26.48;30.14;99608.11;1670615;84;26468;-72
2021/05/12 11:11:53;;;;;;;10.60;2.52;;;;;;;26.46;30.22;99618.86;1670884;84;25812;-73
2021/05/12 11:14:31;;;;;;;6.10;1.60;;;;;;;26.50;30.36;99609.17;1643058;86;25861;-72
2021/05/12 11:17:18;;;;;;;5.53;1.52;;;;;;;26.54;30.51;99600.82;1672117;84;25887;-73
2021/05/12 11:25:24;;;;;;;15.60;2.33;;;;;;;26.70;31.01;99596.83;1652469;84;25746;-72
2021/05/12 11:33:39;;;;;;;14.78;2.20;;;;;;;26.71;30.34;99593.60;1654008;85;25381;-74
2021/05/12 11:36:13;;;;;;;13.35;2.75;;;;;;;26.75;30.50;99584.69;1626580;86;25651;-74
2021/05/12 11:38:40;;;;;;;8.08;2.12;;;;;;;26.85;30.51;99591.00;1672967;84;25841;-73
2021/05/12 11:41:42;;;;;;;11.85;1.90;;;;;;;26.93;30.53;99581.75;1879441;74;25453;-75
2021/05/12 11:44:08;;;;;;;11.33;1.67;;;;;;;26.90;30.92;99576.97;1843217;75;26111;-75
2021/05/12 11:46:40;;;;;;;10.43;2.00;;;;;;;27.06;31.00;99574.02;1843469;75;25544;-74
2021/05/12 11:49:10;;;;;;;8.13;1.50;;;;;;;27.17;30.94;99584.34;1848428;75;25783;-74
2021/05/12 11:51:41;;;;;;;8.20;1.80;;;;;;;27.28;30.94;99586.83;1841428;75;25400;-74
2021/05/12 11:54:22;;;;;;;8.98;1.60;;;;;;;27.29;30.40;99581.73;1845040;75;25773;-73
2021/05/12 11:56:52;;;;;;;7.40;1.25;;;;;;;27.31;30.92;99583.03;1849852;75;25466;-73